Time,TemperatureF,DewpointF,PressureIn,WindDirection,WindDirectionDegrees,WindSpeedMPH,WindSpeedGustMPH,Humidity,HourlyPrecipIn,Conditions,Clouds,dailyrainin,SoftwareType,DateUTC
2013-04-29 00:12:00,46.6,46.3,29.99,South,180,4.2,-999.0,99,-99.99,,,0.01,Acu-Link.com,2013-04-29 04:12:00,
2013-04-29 00:27:00,46.6,46.3,29.99,East,90,2.7,-999.0,99,-99.99,,,0.01,Acu-Link.com,2013-04-29 04:27:00,
2013-04-29 00:42:00,46.8,46.5,29.99,SW,225,5.3,-999.0,99,-99.99,,,0.01,Acu-Link.com,2013-04-29 04:42:00,
2013-04-29 00:58:00,46.9,46.4,29.99,SSE,157,4.2,-999.0,98,-99.99,,,0.01,Acu-Link.com,2013-04-29 04:58:00,
2013-04-29 01:13:00,46.9,46.4,29.99,East,90,4.7,-999.0,98,-99.99,,,0.01,Acu-Link.com,2013-04-29 05:13:00,
2013-04-29 01:28:00,46.9,46.4,29.99,ESE,112,2.7,-999.0,98,-99.99,,,0.01,Acu-Link.com,2013-04-29 05:28:00,
2013-04-29 01:43:00,46.9,46.6,29.98,East,90,4.2,-999.0,99,-99.99,,,0.01,Acu-Link.com,2013-04-29 05:43:00,
2013-04-29 01:58:00,46.9,46.6,29.99,SSE,157,7.3,-999.0,99,-99.99,,,0.01,Acu-Link.com,2013-04-29 05:58:00,
2013-04-29 02:14:00,46.8,46.5,29.98,NNE,22,3.2,-999.0,99,-99.99,,,0.01,Acu-Link.com,2013-04-29 06:14:00,
2013-04-29 02:29:00,46.6,46.3,29.97,SSE,157,3.2,-999.0,99,-99.99,,,0.01,Acu-Link.com,2013-04-29 06:29:00,
2013-04-29 02:44:00,46.6,46.3,29.96,ESE,112,4.2,-999.0,99,-99.99,,,0.01,Acu-Link.com,2013-04-29 06:44:00,
2013-04-29 02:59:00,46.6,46.3,29.96,ESE,112,4.7,-999.0,99,-99.99,,,0.02,Acu-Link.com,2013-04-29 06:59:00,
2013-04-29 03:15:00,46.6,46.3,29.95,ESE,112,4.2,-999.0,99,-99.99,,,0.02,Acu-Link.com,2013-04-29 07:15:00,
2013-04-29 03:30:00,46.4,46.1,29.96,SW,225,3.2,-999.0,99,-99.99,,,0.02,Acu-Link.com,2013-04-29 07:30:00,
2013-04-29 03:45:00,46.4,46.1,29.96,SSE,157,4.2,-999.0,99,-99.99,,,0.02,Acu-Link.com,2013-04-29 07:45:00,
2013-04-29 04:00:00,46.4,46.1,29.95,ESE,112,2.2,-999.0,99,-99.99,,,0.02,Acu-Link.com,2013-04-29 08:00:00,
2013-04-29 04:16:00,46.4,46.1,29.95,NW,315,3.2,-999.0,99,-99.99,,,0.02,Acu-Link.com,2013-04-29 08:16:00,
2013-04-29 04:31:00,46.4,46.1,29.95,ESE,112,5.8,-999.0,99,-99.99,,,0.02,Acu-Link.com,2013-04-29 08:31:00,
2013-04-29 04:46:00,46.4,46.1,29.95,SSE,157,2.2,-999.0,99,-99.99,,,0.02,Acu-Link.com,2013-04-29 08:46:00,
2013-04-29 05:01:00,46.4,46.1,29.95,North,0,3.2,-999.0,99,-99.99,,,0.02,Acu-Link.com,2013-04-29 09:01:00,
2013-04-29 05:16:00,46.4,46.1,29.95,West,270,1.7,-999.0,99,-99.99,,,0.02,Acu-Link.com,2013-04-29 09:16:00,
2013-04-29 05:32:00,46.2,45.9,29.95,SE,135,2.2,-999.0,99,-99.99,,,0.02,Acu-Link.com,2013-04-29 09:32:00,
2013-04-29 05:47:00,46.2,45.9,29.94,ENE,67,2.2,-999.0,99,-99.99,,,0.02,Acu-Link.com,2013-04-29 09:47:00,
2013-04-29 06:02:00,46.2,45.9,29.95,ESE,112,4.7,-999.0,99,-99.99,,,0.02,Acu-Link.com,2013-04-29 10:02:00,
2013-04-29 06:17:00,46.2,45.9,29.95,ESE,112,5.8,-999.0,99,-99.99,,,0.02,Acu-Link.com,2013-04-29 10:17:00,
2013-04-29 06:33:00,46.2,45.9,29.96,ESE,112,3.7,-999.0,99,-99.99,,,0.02,Acu-Link.com,2013-04-29 10:33:00,
2013-04-29 06:48:00,46.2,45.9,29.97,SE,135,3.2,-999.0,99,-99.99,,,0.02,Acu-Link.com,2013-04-29 10:48:00,
2013-04-29 07:03:00,46.4,46.1,29.97,WSW,247,2.7,-999.0,99,-99.99,,,0.02,Acu-Link.com,2013-04-29 11:03:00,
2013-04-29 07:18:00,46.4,46.1,29.97,East,90,0.0,-999.0,99,-99.99,,,0.02,Acu-Link.com,2013-04-29 11:18:00,
2013-04-29 07:33:00,46.4,46.1,29.98,WNW,292,0.0,-999.0,99,-99.99,,,0.02,Acu-Link.com,2013-04-29 11:33:00,
2013-04-29 07:49:00,46.6,46.3,29.98,North,0,3.7,-999.0,99,-99.99,,,0.02,Acu-Link.com,2013-04-29 11:49:00,
2013-04-29 08:04:00,46.9,46.6,29.98,NNE,22,2.2,-999.0,99,-99.99,,,0.02,Acu-Link.com,2013-04-29 12:04:00,
2013-04-29 08:19:00,47.1,46.8,29.99,South,180,3.2,-999.0,99,-99.99,,,0.02,Acu-Link.com,2013-04-29 12:19:00,
2013-04-29 08:35:00,47.5,47.2,29.98,South,180,3.2,-999.0,99,-99.99,,,0.02,Acu-Link.com,2013-04-29 12:35:00,
2013-04-29 08:50:00,48.2,47.9,29.98,ENE,67,2.7,-999.0,99,-99.99,,,0.02,Acu-Link.com,2013-04-29 12:50:00,
2013-04-29 09:05:00,49.1,48.8,29.99,East,90,3.2,-999.0,99,-99.99,,,0.02,Acu-Link.com,2013-04-29 13:05:00,
2013-04-29 09:20:00,49.5,49.0,29.99,ESE,112,5.8,-999.0,98,-99.99,,,0.02,Acu-Link.com,2013-04-29 13:20:00,
2013-04-29 09:35:00,50.4,49.6,29.99,ESE,112,0.0,-999.0,97,-99.99,,,0.02,Acu-Link.com,2013-04-29 13:35:00,
2013-04-29 09:51:00,52.7,50.7,29.99,ESE,112,2.7,-999.0,93,-99.99,,,0.02,Acu-Link.com,2013-04-29 13:51:00,
2013-04-29 10:13:00,52.3,50.6,29.98,ESE,112,4.7,-999.0,94,-99.99,,,0.02,Acu-Link.com,2013-04-29 14:13:00,
2013-04-29 10:28:00,52.5,50.5,29.98,ESE,112,2.2,-999.0,93,-99.99,,,0.02,Acu-Link.com,2013-04-29 14:28:00,
2013-04-29 10:43:00,52.2,50.8,29.97,ESE,112,2.7,-999.0,95,-99.99,,,0.02,Acu-Link.com,2013-04-29 14:43:00,
2013-04-29 10:59:00,53.1,51.1,29.98,ENE,67,3.7,-999.0,93,-99.99,,,0.02,Acu-Link.com,2013-04-29 14:59:00,
2013-04-29 11:14:00,53.1,51.1,30.00,South,180,1.7,-999.0,93,-99.99,,,0.02,Acu-Link.com,2013-04-29 15:14:00,
2013-04-29 11:29:00,53.8,51.2,29.98,ESE,112,6.8,-999.0,91,-99.99,,,0.02,Acu-Link.com,2013-04-29 15:29:00,
2013-04-29 11:45:00,54.1,51.2,29.99,North,0,3.2,-999.0,90,-99.99,,,0.02,Acu-Link.com,2013-04-29 15:45:00,
2013-04-29 12:00:00,54.7,51.8,29.99,South,180,5.3,-999.0,90,-99.99,,,0.02,Acu-Link.com,2013-04-29 16:00:00,
2013-04-29 12:15:00,54.5,51.9,29.99,South,180,4.7,-999.0,91,-99.99,,,0.02,Acu-Link.com,2013-04-29 16:15:00,
2013-04-29 12:30:00,54.5,51.9,29.98,NNE,22,2.7,-999.0,91,-99.99,,,0.02,Acu-Link.com,2013-04-29 16:30:00,
2013-04-29 12:46:00,54.7,52.4,29.98,East,90,2.7,-999.0,92,-99.99,,,0.02,Acu-Link.com,2013-04-29 16:46:00,
2013-04-29 13:01:00,55.4,52.8,29.98,NNE,22,1.7,-999.0,91,-99.99,,,0.02,Acu-Link.com,2013-04-29 17:01:00,
2013-04-29 13:16:00,54.9,52.9,29.98,NE,45,4.7,-999.0,93,-99.99,,,0.02,Acu-Link.com,2013-04-29 17:16:00,
2013-04-29 13:31:00,55.6,52.7,29.97,SE,135,2.2,-999.0,90,-99.99,,,0.02,Acu-Link.com,2013-04-29 17:31:00,
2013-04-29 13:46:00,55.9,52.7,29.98,ESE,112,1.7,-999.0,89,-99.99,,,0.02,Acu-Link.com,2013-04-29 17:46:00,
2013-04-29 14:02:00,56.1,53.5,29.98,SE,135,3.2,-999.0,91,-99.99,,,0.02,Acu-Link.com,2013-04-29 18:02:00,
2013-04-29 14:17:00,56.7,53.5,29.98,East,90,7.8,-999.0,89,-99.99,,,0.02,Acu-Link.com,2013-04-29 18:17:00,
2013-04-29 14:32:00,56.8,54.2,29.98,South,180,5.3,-999.0,91,-99.99,,,0.02,Acu-Link.com,2013-04-29 18:32:00,
2013-04-29 14:47:00,55.4,53.1,29.98,NNE,22,7.3,-999.0,92,-99.99,,,0.02,Acu-Link.com,2013-04-29 18:47:00,
2013-04-29 15:02:00,55.6,53.3,29.97,ENE,67,3.2,-999.0,92,-99.99,,,0.02,Acu-Link.com,2013-04-29 19:02:00,
2013-04-29 15:18:00,58.6,54.4,29.97,SW,225,1.1,-999.0,86,-99.99,,,0.02,Acu-Link.com,2013-04-29 19:18:00,
2013-04-29 15:33:00,57.4,53.9,29.97,SSE,157,2.7,-999.0,88,-99.99,,,0.02,Acu-Link.com,2013-04-29 19:33:00,
2013-04-29 15:48:00,58.3,54.4,29.97,SE,135,4.7,-999.0,87,-99.99,,,0.02,Acu-Link.com,2013-04-29 19:48:00,
2013-04-29 16:03:00,56.3,53.4,29.97,NNE,22,3.7,-999.0,90,-99.99,,,0.02,Acu-Link.com,2013-04-29 20:03:00,
2013-04-29 16:18:00,56.8,53.6,29.97,East,90,3.2,-999.0,89,-99.99,,,0.02,Acu-Link.com,2013-04-29 20:18:00,
2013-04-29 16:34:00,56.3,53.4,29.97,SW,225,3.7,-999.0,90,-99.99,,,0.02,Acu-Link.com,2013-04-29 20:34:00,
2013-04-29 16:49:00,56.3,53.4,29.97,West,270,3.7,-999.0,90,-99.99,,,0.02,Acu-Link.com,2013-04-29 20:49:00,
2013-04-29 17:04:00,56.3,53.4,29.97,WNW,292,1.7,-999.0,90,-99.99,,,0.02,Acu-Link.com,2013-04-29 21:04:00,
2013-04-29 17:20:00,56.3,53.4,29.97,ENE,67,5.8,-999.0,90,-99.99,,,0.02,Acu-Link.com,2013-04-29 21:20:00,
2013-04-29 17:35:00,56.8,53.6,29.97,WNW,292,2.2,-999.0,89,-99.99,,,0.02,Acu-Link.com,2013-04-29 21:35:00,
2013-04-29 17:50:00,57.2,53.7,29.96,ESE,112,2.7,-999.0,88,-99.99,,,0.02,Acu-Link.com,2013-04-29 21:50:00,
2013-04-29 18:05:00,56.7,53.8,29.97,ESE,112,2.2,-999.0,90,-99.99,,,0.02,Acu-Link.com,2013-04-29 22:05:00,
2013-04-29 18:21:00,55.4,53.7,29.97,ENE,67,4.2,-999.0,94,-99.99,,,0.02,Acu-Link.com,2013-04-29 22:21:00,
2013-04-29 18:37:00,54.5,53.4,29.97,ENE,67,3.7,-999.0,96,-99.99,,,0.02,Acu-Link.com,2013-04-29 22:37:00,
2013-04-29 18:53:00,53.8,53.0,29.96,SSE,157,3.2,-999.0,97,-99.99,,,0.02,Acu-Link.com,2013-04-29 22:53:00,
2013-04-29 19:08:00,52.9,52.4,29.98,ENE,67,3.7,-999.0,98,-99.99,,,0.02,Acu-Link.com,2013-04-29 23:08:00,
2013-04-29 19:23:00,52.7,52.4,29.98,ESE,112,3.2,-999.0,99,-99.99,,,0.02,Acu-Link.com,2013-04-29 23:23:00,
2013-04-29 19:39:00,52.7,52.4,29.98,WNW,292,2.7,-999.0,99,-99.99,,,0.02,Acu-Link.com,2013-04-29 23:39:00,
2013-04-29 19:54:00,52.3,52.0,29.99,ESE,112,3.7,-999.0,99,-99.99,,,0.02,Acu-Link.com,2013-04-29 23:54:00,
2013-04-29 20:10:00,52.2,51.9,29.99,SSE,157,2.7,-999.0,99,-99.99,,,0.02,Acu-Link.com,2013-04-30 00:10:00,
2013-04-29 20:30:00,51.8,51.5,30.00,WNW,292,4.2,-999.0,99,-99.99,,,0.02,Acu-Link.com,2013-04-30 00:30:00,
2013-04-29 20:45:00,51.8,51.5,30.00,ESE,112,2.7,-999.0,99,-99.99,,,0.02,Acu-Link.com,2013-04-30 00:45:00,
2013-04-29 21:00:00,51.8,51.5,30.01,SSE,157,1.1,-999.0,99,-99.99,,,0.02,Acu-Link.com,2013-04-30 01:00:00,
2013-04-29 21:16:00,51.8,51.5,30.01,NNE,22,4.2,-999.0,99,-99.99,,,0.02,Acu-Link.com,2013-04-30 01:16:00,
2013-04-29 21:34:00,51.8,51.5,30.02,ESE,112,3.2,-999.0,99,-99.99,,,0.02,Acu-Link.com,2013-04-30 01:34:00,
2013-04-29 21:49:00,51.8,51.5,30.03,SW,225,2.2,-999.0,99,-99.99,,,0.03,Acu-Link.com,2013-04-30 01:49:00,
2013-04-29 22:12:00,51.8,51.5,30.02,SE,135,12.5,-999.0,99,-99.99,,,0.04,Acu-Link.com,2013-04-30 02:12:00,
2013-04-29 22:27:00,51.8,51.5,30.02,NNE,22,1.7,-999.0,99,-99.99,,,0.09,Acu-Link.com,2013-04-30 02:27:00,
2013-04-29 22:43:00,51.6,51.3,30.03,North,0,2.7,-999.0,99,-99.99,,,0.10,Acu-Link.com,2013-04-30 02:43:00,
2013-04-29 22:58:00,51.3,51.0,30.02,East,90,6.3,-999.0,99,-99.99,,,0.10,Acu-Link.com,2013-04-30 02:58:00,
2013-04-29 23:13:00,51.1,50.8,30.02,ESE,112,3.2,-999.0,99,-99.99,,,0.11,Acu-Link.com,2013-04-30 03:13:00,
2013-04-29 23:28:00,50.9,50.6,30.02,NNW,337,2.2,-999.0,99,-99.99,,,0.11,Acu-Link.com,2013-04-30 03:28:00,
2013-04-29 23:44:00,50.9,50.6,30.03,SE,135,5.8,-999.0,99,-99.99,,,0.11,Acu-Link.com,2013-04-30 03:44:00,
2013-04-29 23:59:00,50.7,50.4,30.02,ESE,112,3.7,-999.0,99,-99.99,,,0.12,Acu-Link.com,2013-04-30 03:59:00,